Forside
METAR-TAF:

METAR-TAF

Lufthavne :

Tjita, Rusland

Breddekreds: 52-05N, længdekreds: 113-29E, højde: 685 m

Aktuelle vejr

Denne rapport blev lavet for 47 minutter siden, kl. 12:30 UTC
Vind 8 kt fra sydsydvest
Temperatur -9°C
Fugtighed 73%
Tryk 1010 hPa
Sigt 10 km eller mere

METAR: UIAA 191230Z 20004MPS 9999 NSC M09/M13 Q1010 R29/410150 NOSIG RMK QFE699/0932

Tid: 22:17 (13:17 UTC)

Vejrudsigter

Denne rapport blev lavet for 2 timer og 17 minutter siden, kl. 11:00 UTC
Foreløbig gælder fra 19 på 12 UTC til 20 på 12 UTC
Vind 6 kt fra sydvest med vindstød på up til 16 kt
Sigt 10 km eller mere

TAF: UIAA 191100Z 1912/2012 22003G08MPS 9999 NSC

Vejrobservationer og prognoser fra mere end 4000 lufthavne (METAR og TAF).

De gule og røde prikker repræsenterer de meteorologiske stationer.

Flyt musen over at se navnet på stationen.

Så klik over at se vejr observationer og prognoser.

At skifte det kort: Klik på de grønne knapper med et sort kors for at zoome ind; på den grønne knap med en bindestreg for at zoome ud; eller på de grønne pile for tilstødende kort.


METAR-TAF: